createdAt,value
2023-03-21T00:00:51.228Z,95.30
2023-03-21T00:03:19.815Z,95.25
2023-03-21T00:05:53.877Z,95.33
2023-03-21T00:08:26.193Z,95.46
2023-03-21T00:11:02.565Z,95.63
2023-03-21T00:13:33.657Z,95.68
2023-03-21T00:16:13.432Z,95.72
2023-03-21T00:18:54.863Z,95.87
2023-03-21T00:24:16.953Z,96.04
2023-03-21T00:26:46.378Z,96.33
2023-03-21T00:29:15.521Z,96.52
2023-03-21T00:31:44.259Z,96.46
2023-03-21T00:36:46.357Z,96.60
2023-03-21T00:39:15.468Z,96.60
2023-03-21T00:41:45.296Z,96.69
2023-03-21T00:44:16.084Z,96.76
2023-03-21T00:47:04.229Z,96.72
2023-03-21T00:49:42.748Z,97.05
2023-03-21T00:52:18.634Z,97.19
2023-03-21T00:54:53.216Z,97.24
2023-03-21T00:57:29.328Z,97.15
2023-03-21T01:00:08.059Z,97.08
2023-03-21T01:03:02.789Z,96.86
2023-03-21T01:06:13.780Z,96.91
2023-03-21T01:09:02.960Z,96.96
2023-03-21T01:11:31.679Z,96.91
2023-03-21T01:14:14.608Z,96.93
2023-03-21T01:16:47.863Z,96.85
2023-03-21T01:19:25.089Z,96.97
2023-03-21T01:21:57.232Z,97.04
2023-03-21T01:24:29.458Z,97.22
2023-03-21T01:26:58.856Z,97.46
2023-03-21T01:29:27.436Z,97.53
2023-03-21T01:31:56.162Z,97.75
2023-03-21T01:34:24.706Z,97.78
2023-03-21T01:37:13.052Z,97.75
2023-03-21T01:39:47.314Z,97.78
2023-03-21T01:42:16.161Z,97.93
2023-03-21T01:44:56.987Z,97.93
2023-03-21T01:47:26.534Z,98.03
2023-03-21T01:50:18.055Z,98.17
2023-03-21T01:53:20.330Z,97.99
2023-03-21T01:55:50.041Z,98.08
2023-03-21T01:58:42.178Z,98.50
2023-03-21T02:01:28.282Z,98.31
2023-03-21T02:03:57.259Z,98.19
2023-03-21T02:06:50.823Z,98.53
2023-03-21T02:09:42.547Z,98.70
2023-03-21T02:12:16.660Z,98.85
2023-03-21T02:14:46.175Z,98.65
2023-03-21T02:17:34.585Z,99.03
2023-03-21T02:20:26.752Z,99.11
2023-03-21T02:23:14.076Z,99.07
2023-03-21T02:25:57.942Z,99.07
2023-03-21T02:28:36.224Z,99.23
2023-03-21T02:31:14.739Z,99.30
2023-03-21T02:34:10.825Z,99.19
2023-03-21T02:37:07.106Z,99.17
2023-03-21T02:40:11.339Z,99.00
2023-03-21T02:42:51.699Z,98.93
2023-03-21T02:45:30.838Z,98.94
2023-03-21T02:48:04.889Z,98.93
2023-03-21T02:50:44.150Z,98.98
2023-03-21T02:53:15.189Z,98.99
2023-03-21T02:55:44.239Z,98.79
2023-03-21T02:58:17.619Z,98.75
2023-03-21T03:00:50.364Z,98.59
2023-03-21T03:03:34.437Z,98.59
2023-03-21T03:06:24.809Z,98.49
2023-03-21T03:09:02.832Z,98.45
2023-03-21T03:11:35.889Z,98.60
2023-03-21T03:14:46.872Z,98.46
2023-03-21T03:17:23.884Z,98.28
2023-03-21T03:20:16.995Z,97.77
2023-03-21T03:22:58.200Z,97.40
2023-03-21T03:25:55.757Z,97.33
2023-03-21T03:28:30.293Z,97.16
2023-03-21T03:31:08.731Z,97.26
2023-03-21T03:33:45.084Z,97.33
2023-03-21T03:36:30.379Z,97.47
2023-03-21T03:39:07.434Z,97.33
2023-03-21T03:42:06.037Z,97.47
2023-03-21T03:44:34.382Z,97.32
2023-03-21T03:47:17.495Z,97.43
2023-03-21T03:50:10.701Z,97.22
2023-03-21T03:53:19.519Z,97.08
2023-03-21T03:55:55.039Z,97.02
2023-03-21T03:58:29.181Z,96.68
2023-03-21T04:01:05.875Z,96.59
2023-03-21T04:03:48.907Z,96.33
2023-03-21T04:06:19.269Z,96.29
2023-03-21T04:08:51.436Z,96.14
2023-03-21T04:11:20.113Z,95.86
2023-03-21T04:13:52.294Z,95.55
2023-03-21T04:16:26.146Z,95.15
2023-03-21T04:18:55.943Z,95.39
2023-03-21T04:21:25.954Z,95.18
2023-03-21T04:24:01.468Z,95.07
2023-03-21T04:26:33.484Z,94.75
2023-03-21T04:29:24.864Z,94.30
2023-03-21T04:32:17.928Z,93.83
2023-03-21T04:34:54.572Z,93.76
2023-03-21T04:37:24.000Z,93.62
2023-03-21T04:39:53.229Z,93.89
2023-03-21T04:42:22.907Z,93.85
2023-03-21T04:44:51.954Z,93.82
2023-03-21T04:47:20.599Z,93.85
2023-03-21T04:49:54.081Z,93.59
2023-03-21T04:52:24.934Z,93.46
2023-03-21T04:54:54.109Z,93.48
2023-03-21T04:57:24.442Z,93.47
2023-03-21T04:59:53.038Z,93.41
2023-03-21T05:02:29.032Z,93.11
2023-03-21T05:04:57.661Z,93.15
2023-03-21T05:07:26.559Z,93.41
2023-03-21T05:09:54.932Z,93.35
2023-03-21T05:12:24.102Z,93.57
2023-03-21T05:14:53.359Z,93.82
2023-03-21T05:17:28.699Z,93.78
2023-03-21T05:19:58.555Z,93.57
2023-03-21T05:22:29.273Z,93.48
2023-03-21T05:24:59.845Z,93.34
2023-03-21T05:27:54.446Z,93.20
2023-03-21T05:30:25.869Z,93.12
2023-03-21T05:32:58.769Z,92.79
2023-03-21T05:35:27.299Z,92.41
2023-03-21T05:38:01.154Z,92.28
2023-03-21T05:40:33.209Z,91.94
2023-03-21T05:43:02.256Z,91.86
2023-03-21T05:45:32.702Z,91.90
2023-03-21T05:48:05.978Z,91.77
2023-03-21T05:50:39.274Z,91.47
2023-03-21T05:53:14.768Z,91.36
2023-03-21T05:55:46.157Z,91.17
2023-03-21T06:03:12.424Z,90.62
2023-03-21T10:29:43.418Z,71.55
2023-03-21T13:05:36.127Z,70.74
2023-03-21T13:08:21.266Z,71.43
2023-03-21T13:10:51.163Z,71.79
2023-03-21T13:14:21.883Z,72.08
2023-03-21T13:16:56.374Z,72.64
2023-03-21T13:19:47.645Z,73.00
2023-03-21T13:22:22.951Z,73.03
2023-03-21T13:25:22.469Z,72.66
2023-03-21T13:27:55.564Z,72.59
2023-03-21T13:30:29.122Z,72.51
2023-03-21T13:33:13.164Z,72.32
2023-03-21T13:35:43.218Z,72.22
2023-03-21T13:38:36.584Z,72.11
2023-03-21T13:41:16.133Z,72.11
2023-03-21T13:44:03.357Z,72.36
2023-03-21T13:46:50.523Z,72.42
2023-03-21T13:49:32.740Z,72.49
2023-03-21T13:52:12.083Z,72.55
2023-03-21T13:54:57.049Z,72.80
2023-03-21T13:57:30.695Z,73.27
2023-03-21T14:00:37.224Z,74.28
2023-03-21T14:03:12.479Z,76.30
2023-03-21T14:06:01.124Z,78.13
2023-03-21T14:08:37.413Z,80.48
2023-03-21T14:11:08.703Z,82.17
2023-03-21T14:13:50.990Z,83.79
2023-03-21T14:16:21.435Z,85.52
2023-03-21T14:18:55.057Z,87.09
2023-03-21T14:21:28.466Z,88.57
2023-03-21T14:24:11.579Z,89.93
2023-03-21T14:26:59.531Z,91.01
2023-03-21T14:29:33.649Z,92.13
2023-03-21T14:32:02.249Z,92.71
2023-03-21T14:34:34.293Z,93.18
2023-03-21T14:37:03.944Z,94.13
2023-03-21T14:39:33.418Z,94.75
2023-03-21T14:42:06.305Z,95.27
2023-03-21T14:44:58.108Z,96.02
2023-03-21T14:47:28.261Z,96.90
2023-03-21T14:49:57.062Z,97.48
2023-03-21T14:52:27.822Z,97.90
2023-03-21T14:54:56.516Z,98.48
2023-03-21T14:57:27.867Z,98.95
2023-03-21T14:59:58.460Z,99.58
2023-03-21T15:02:32.627Z,100.00
2023-03-21T15:05:22.468Z,100.00
2023-03-21T15:08:22.206Z,100.00
2023-03-21T15:11:08.099Z,100.00
2023-03-21T15:13:50.393Z,100.00
2023-03-21T15:16:19.120Z,100.00
2023-03-21T15:18:47.823Z,100.00
2023-03-21T15:21:48.171Z,100.00
2023-03-21T15:24:26.704Z,100.00
2023-03-21T15:27:03.947Z,100.00
2023-03-21T15:29:33.798Z,100.00
2023-03-21T15:32:05.048Z,100.00
2023-03-21T15:34:33.648Z,100.00
2023-03-21T15:37:12.731Z,100.00
2023-03-21T15:39:46.299Z,100.00
2023-03-21T15:42:34.342Z,100.00
2023-03-21T15:45:20.086Z,100.00
2023-03-21T15:47:59.418Z,100.00
2023-03-21T15:50:39.215Z,100.00
2023-03-21T15:53:19.129Z,100.00
2023-03-21T15:55:52.709Z,100.00
2023-03-21T15:58:27.670Z,100.00
2023-03-21T16:01:02.251Z,100.00
2023-03-21T16:03:37.565Z,100.00
2023-03-21T16:06:17.131Z,100.00
2023-03-21T16:08:47.844Z,100.00
2023-03-21T16:11:18.611Z,100.00
2023-03-21T16:13:50.177Z,100.00
2023-03-21T16:16:28.638Z,100.00
2023-03-21T16:19:02.087Z,100.00
2023-03-21T16:21:34.801Z,100.00
2023-03-21T16:24:03.380Z,100.00
2023-03-21T16:26:33.428Z,100.00
2023-03-21T16:29:01.739Z,100.00
2023-03-21T16:31:32.708Z,100.00
2023-03-21T16:34:02.490Z,100.00
2023-03-21T16:36:38.697Z,100.00
2023-03-21T16:39:27.116Z,100.00
2023-03-21T16:41:56.331Z,100.00
2023-03-21T16:44:24.796Z,100.00
2023-03-21T16:46:53.349Z,100.00
2023-03-21T16:49:26.992Z,100.00
2023-03-21T16:51:59.447Z,100.00
2023-03-21T16:54:32.360Z,100.00
2023-03-21T16:57:00.599Z,100.00
2023-03-21T16:59:29.273Z,100.00
2023-03-21T17:01:57.817Z,100.00
2023-03-21T17:04:26.958Z,100.00
2023-03-21T17:06:55.513Z,100.00
2023-03-21T17:09:26.527Z,100.00
2023-03-21T17:12:00.318Z,100.00
2023-03-21T17:14:31.436Z,100.00
2023-03-21T17:16:59.928Z,100.00
2023-03-21T17:19:28.444Z,100.00
2023-03-21T17:21:56.808Z,100.00
2023-03-21T17:24:29.341Z,100.00
2023-03-21T17:27:01.641Z,100.00
2023-03-21T17:29:30.125Z,100.00
2023-03-21T17:31:59.391Z,100.00
2023-03-21T17:34:27.628Z,100.00
2023-03-21T17:37:02.593Z,100.00
2023-03-21T17:39:32.712Z,100.00
2023-03-21T17:42:01.299Z,100.00
2023-03-21T17:44:32.542Z,100.00
2023-03-21T17:47:01.747Z,100.00
2023-03-21T17:49:32.490Z,100.00
2023-03-21T17:52:00.887Z,100.00
2023-03-21T17:54:29.457Z,100.00
2023-03-21T17:56:57.873Z,100.00
2023-03-21T17:59:26.606Z,100.00
2023-03-21T18:01:55.750Z,100.00
2023-03-21T18:04:25.341Z,100.00
2023-03-21T18:06:57.367Z,100.00
2023-03-21T18:09:27.700Z,100.00
2023-03-21T18:11:56.273Z,100.00
2023-03-21T18:14:28.467Z,100.00
2023-03-21T18:16:57.587Z,100.00
2023-03-21T18:19:27.078Z,100.00
2023-03-21T18:21:56.280Z,100.00
2023-03-21T18:24:24.789Z,100.00
2023-03-21T18:26:53.216Z,100.00
2023-03-21T18:32:11.592Z,100.00
2023-03-21T18:34:39.993Z,100.00
2023-03-21T18:37:10.024Z,100.00
2023-03-21T18:39:39.943Z,100.00
2023-03-21T18:42:16.794Z,100.00
2023-03-21T18:44:48.210Z,100.00
2023-03-21T18:47:16.934Z,100.00
2023-03-21T18:50:12.568Z,100.00
2023-03-21T18:52:38.934Z,100.00
2023-03-21T18:55:09.063Z,100.00
2023-03-21T18:57:38.858Z,100.00
2023-03-21T19:00:13.938Z,100.00
2023-03-21T19:02:47.133Z,100.00
2023-03-21T19:05:26.180Z,100.00
2023-03-21T19:14:29.768Z,100.00
2023-03-21T19:17:47.558Z,100.00
2023-03-21T19:19:49.587Z,100.00
2023-03-21T19:22:18.244Z,100.00
2023-03-21T19:24:47.165Z,100.00
2023-03-21T19:27:16.355Z,100.00
2023-03-21T19:30:03.002Z,100.00
2023-03-21T19:32:36.148Z,100.00
2023-03-21T19:35:05.162Z,100.00
2023-03-21T19:37:36.185Z,100.00
2023-03-21T19:40:06.017Z,100.00
2023-03-21T19:42:36.479Z,100.00
2023-03-21T19:45:10.033Z,100.00
2023-03-21T19:47:39.601Z,100.00
2023-03-21T19:50:47.719Z,100.00
2023-03-21T19:53:00.954Z,100.00
2023-03-21T19:55:29.617Z,100.00
2023-03-21T19:58:00.558Z,100.00
2023-03-21T20:00:30.484Z,100.00
2023-03-21T20:02:59.850Z,100.00
2023-03-21T20:05:28.966Z,100.00
2023-03-21T20:07:57.662Z,100.00
2023-03-21T20:10:27.901Z,100.00
2023-03-21T20:13:00.039Z,100.00
2023-03-21T20:15:30.566Z,100.00
2023-03-21T20:18:04.377Z,100.00
2023-03-21T20:20:33.784Z,100.00
2023-03-21T20:23:08.142Z,100.00
2023-03-21T20:25:41.433Z,100.00
2023-03-21T20:28:20.063Z,100.00
2023-03-21T20:30:57.281Z,100.00
2023-03-21T20:33:26.790Z,100.00
2023-03-21T20:36:37.363Z,100.00
2023-03-21T20:38:56.016Z,100.00
2023-03-21T20:41:24.400Z,100.00
2023-03-21T20:46:56.933Z,100.00
2023-03-21T20:49:28.484Z,100.00
2023-03-21T20:54:47.626Z,100.00
2023-03-21T20:57:18.629Z,100.00
2023-03-21T20:59:47.968Z,100.00
2023-03-21T21:02:17.225Z,100.00
2023-03-21T21:05:15.676Z,100.00
2023-03-21T21:07:36.351Z,100.00
2023-03-21T21:10:10.171Z,100.00
2023-03-21T21:12:39.581Z,100.00
2023-03-21T21:15:08.690Z,100.00
2023-03-21T21:20:25.765Z,100.00
2023-03-21T21:23:00.184Z,100.00
2023-03-21T21:25:32.367Z,100.00
2023-03-21T21:28:02.299Z,100.00
2023-03-21T21:30:38.271Z,100.00
2023-03-21T21:33:07.230Z,100.00
2023-03-21T21:35:36.043Z,100.00
2023-03-21T21:38:04.915Z,100.00
2023-03-21T21:40:36.549Z,100.00
2023-03-21T21:43:13.076Z,100.00
2023-03-21T21:45:42.312Z,100.00
2023-03-21T21:48:11.958Z,100.00
2023-03-21T21:50:41.811Z,100.00
2023-03-21T21:53:13.380Z,100.00
2023-03-21T21:55:42.191Z,100.00
2023-03-21T21:58:13.645Z,100.00
2023-03-21T22:00:43.025Z,100.00
2023-03-21T22:03:12.584Z,100.00
2023-03-21T22:05:41.313Z,100.00
2023-03-21T22:08:12.537Z,100.00
2023-03-21T22:10:41.408Z,100.00
2023-03-21T22:13:09.849Z,100.00
2023-03-21T22:15:42.225Z,100.00
2023-03-21T22:18:11.416Z,100.00
2023-03-21T22:20:40.054Z,100.00
2023-03-21T22:23:08.892Z,100.00
2023-03-21T22:25:38.887Z,100.00
2023-03-21T22:28:07.774Z,100.00
2023-03-21T22:30:38.068Z,100.00
2023-03-21T22:33:09.889Z,100.00
2023-03-21T22:35:43.047Z,100.00
2023-03-21T22:38:14.375Z,100.00
2023-03-21T22:40:42.661Z,100.00
2023-03-21T22:43:14.633Z,100.00
2023-03-21T22:45:46.756Z,100.00
2023-03-21T22:55:12.756Z,100.00
2023-03-21T22:57:41.492Z,100.00
2023-03-21T23:00:16.231Z,100.00
2023-03-21T23:02:44.793Z,100.00
2023-03-21T23:05:13.810Z,100.00
2023-03-21T23:07:44.821Z,100.00
2023-03-21T23:10:13.527Z,100.00
2023-03-21T23:12:41.978Z,100.00
2023-03-21T23:15:17.923Z,100.00
2023-03-21T23:17:46.724Z,100.00
2023-03-21T23:20:15.107Z,100.00
2023-03-21T23:22:46.338Z,100.00
2023-03-21T23:25:14.731Z,100.00
2023-03-21T23:27:43.817Z,100.00
2023-03-21T23:30:12.404Z,100.00
2023-03-21T23:32:41.099Z,100.00
2023-03-21T23:35:13.361Z,100.00
2023-03-21T23:37:52.520Z,100.00
2023-03-21T23:40:21.435Z,100.00
2023-03-21T23:42:49.792Z,100.00
2023-03-21T23:45:18.234Z,100.00
2023-03-21T23:47:51.088Z,100.00
2023-03-21T23:50:19.367Z,100.00
2023-03-21T23:52:50.266Z,100.00
2023-03-21T23:55:18.940Z,100.00
2023-03-21T23:57:47.399Z,100.00
